Time;durP1;ratioP1;P1;durP2;ratioP2;P2;SDS_P1;SDS_P2;PMS_P1;PMS_P2;Temp;Humidity;BMP_temperature;BMP_pressure;BME280_temperature;BME280_humidity;BME280_pressure;Samples;Min_cycle;Max_cycle;Signal;HPM_P1;HPM_P2
2022/09/18 00:01:46;;;;;;;24.85;3.60;;;9.70;99.90;;;;;;5013910;28;20433;-72
2022/09/18 00:04:13;;;;;;;30.88;4.60;;;9.60;99.90;;;;;;5014440;28;20429;-72
2022/09/18 00:06:40;;;;;;;35.20;4.35;;;9.50;99.90;;;;;;5028165;28;20025;-72
2022/09/18 00:09:08;;;;;;;27.80;3.83;;;9.40;99.90;;;;;;5038432;28;20087;-72
2022/09/18 00:11:37;;;;;;;30.42;4.18;;;9.40;99.90;;;;;;5032528;28;20017;-72
2022/09/18 00:14:05;;;;;;;38.08;5.55;;;9.30;99.90;;;;;;5014583;28;20022;-72
2022/09/18 00:16:31;;;;;;;37.97;4.65;;;9.20;99.90;;;;;;5028329;28;20540;-72
2022/09/18 00:18:56;;;;;;;32.65;4.80;;;9.10;99.90;;;;;;4996326;28;20033;-72
2022/09/18 00:21:24;;;;;;;44.25;4.43;;;9.10;99.90;;;;;;5014672;28;20390;-72
2022/09/18 00:23:51;;;;;;;28.17;4.40;;;9.10;99.90;;;;;;5014404;28;20030;-72
2022/09/18 00:26:17;;;;;;;24.48;4.05;;;9.10;99.90;;;;;;5014265;28;20112;-72
2022/09/18 00:28:43;;;;;;;25.17;3.88;;;9.10;99.90;;;;;;5014301;28;20104;-73
2022/09/18 00:31:10;;;;;;;33.45;5.50;;;9.20;99.90;;;;;;5013888;28;20025;-72
2022/09/18 00:33:38;;;;;;;23.48;4.00;;;9.20;99.90;;;;;;5014323;28;20470;-72
2022/09/18 00:36:06;;;;;;;38.67;4.78;;;9.30;99.90;;;;;;5014178;28;20024;-72
2022/09/18 00:38:32;;;;;;;39.33;4.75;;;9.30;99.90;;;;;;5015795;28;20026;-72
2022/09/18 00:41:00;;;;;;;39.88;4.80;;;9.40;99.90;;;;;;5015726;28;20186;-72
2022/09/18 00:43:27;;;;;;;30.13;4.50;;;9.40;99.90;;;;;;5014277;28;20448;-72
2022/09/18 00:46:00;;;;;;;38.75;6.43;;;9.50;99.90;;;;;;4996167;28;20405;-72
2022/09/18 00:48:36;;;;;;;36.97;4.97;;;9.50;99.90;;;;;;5014456;28;20053;-72
2022/09/18 00:51:02;;;;;;;43.15;6.03;;;9.50;99.90;;;;;;5014536;28;20022;-72
2022/09/18 00:53:28;;;;;;;37.88;4.30;;;9.60;99.90;;;;;;4996016;28;20053;-72
2022/09/18 00:55:56;;;;;;;34.92;5.97;;;9.50;99.90;;;;;;5014034;28;20050;-73
2022/09/18 00:58:21;;;;;;;41.15;4.53;;;9.50;99.90;;;;;;5014337;28;20060;-73
2022/09/18 01:00:47;;;;;;;32.72;4.05;;;9.40;99.90;;;;;;5013459;28;20054;-72
2022/09/18 01:03:12;;;;;;;38.22;4.22;;;9.30;99.90;;;;;;5014118;28;20474;-72
2022/09/18 01:06:09;;;;;;;30.05;3.80;;;9.30;99.90;;;;;;5014220;28;20026;-72
2022/09/18 01:09:02;;;;;;;43.55;4.32;;;9.30;99.90;;;;;;5012842;28;20065;-72
2022/09/18 01:11:31;;;;;;;43.47;6.13;;;9.30;99.90;;;;;;5013977;28;20026;-72
2022/09/18 01:14:33;;;;;;;42.88;4.20;;;9.40;99.90;;;;;;5013800;28;20032;-72
2022/09/18 01:17:08;;;;;;;38.67;4.97;;;9.60;99.90;;;;;;5014370;28;20080;-73
2022/09/18 01:20:10;;;;;;;35.00;4.85;;;9.80;99.90;;;;;;5014007;28;20030;-72
2022/09/18 01:22:56;;;;;;;23.05;3.42;;;9.90;99.90;;;;;;5013286;28;20083;-73
2022/09/18 01:25:45;;;;;;;25.73;3.65;;;9.90;99.90;;;;;;5014303;28;20057;-72
2022/09/18 01:28:43;;;;;;;18.70;2.45;;;9.70;99.90;;;;;;5013772;28;20105;-72
2022/09/18 01:31:32;;;;;;;15.95;2.63;;;9.60;99.90;;;;;;5009565;28;20513;-72
2022/09/18 01:34:02;;;;;;;19.33;2.05;;;9.60;99.90;;;;;;5013928;28;20076;-72
2022/09/18 01:36:33;;;;;;;14.07;2.00;;;9.50;99.90;;;;;;5013105;28;20026;-72
2022/09/18 01:39:15;;;;;;;17.48;2.80;;;9.50;99.90;;;;;;5014022;28;20540;-72
2022/09/18 01:41:49;;;;;;;12.00;2.75;;;9.40;99.90;;;;;;5014125;28;20029;-72
2022/09/18 01:44:17;;;;;;;;;;;9.30;99.90;;;;;;5014081;28;20069;-72
2022/09/18 01:46:44;;;;;;;20.70;2.58;;;9.30;99.90;;;;;;5013137;28;20361;-72
2022/09/18 01:49:14;;;;;;;16.17;2.53;;;9.20;99.90;;;;;;5012659;28;20084;-72
2022/09/18 01:51:54;;;;;;;33.83;3.05;;;9.10;99.90;;;;;;5033552;28;20029;-72
2022/09/18 01:54:27;;;;;;;19.02;2.70;;;9.00;99.90;;;;;;5033400;28;20022;-72
2022/09/18 01:56:58;;;;;;;16.27;2.40;;;8.90;99.90;;;;;;5035062;28;20025;-72
2022/09/18 01:59:31;;;;;;;11.27;1.73;;;8.80;99.90;;;;;;5036994;28;20037;-72
2022/09/18 02:02:00;;;;;;;14.02;2.03;;;8.80;99.90;;;;;;5036238;28;20033;-71
2022/09/18 02:04:31;;;;;;;39.22;3.63;;;8.70;99.90;;;;;;5036528;28;20033;-72
2022/09/18 02:07:10;;;;;;;29.55;3.35;;;8.60;99.90;;;;;;5037025;28;20021;-72
2022/09/18 02:09:36;;;;;;;18.63;2.10;;;8.70;99.90;;;;;;5035974;28;20076;-71
2022/09/18 02:12:05;;;;;;;9.63;2.05;;;8.70;99.90;;;;;;5036910;28;20025;-72
2022/09/18 02:14:52;;;;;;;11.10;1.83;;;8.90;99.90;;;;;;5036365;28;20028;-72
2022/09/18 02:17:26;;;;;;;15.52;2.00;;;8.90;99.90;;;;;;5036936;28;20014;-72
2022/09/18 02:19:57;;;;;;;12.77;2.33;;;8.90;99.90;;;;;;5036075;28;20031;-72
2022/09/18 02:22:26;;;;;;;13.73;2.95;;;8.80;99.90;;;;;;5029349;28;20065;-71
2022/09/18 02:24:55;;;;;;;22.25;3.22;;;8.80;99.90;;;;;;5036332;28;20022;-72
2022/09/18 02:27:23;;;;;;;16.45;2.38;;;8.80;99.90;;;;;;5036181;28;20478;-72
2022/09/18 02:29:50;;;;;;;21.58;2.35;;;8.90;99.90;;;;;;5036088;28;20037;-72
2022/09/18 02:32:15;;;;;;;28.10;4.07;;;9.00;99.90;;;;;;5035695;28;20093;-71
2022/09/18 02:34:41;;;;;;;30.00;3.40;;;9.20;99.90;;;;;;5035960;28;20156;-71
2022/09/18 02:37:33;;;;;;;12.23;2.72;;;9.30;99.90;;;;;;5036180;28;20029;-72
2022/09/18 02:40:26;;;;;;;17.88;2.30;;;9.40;99.90;;;;;;5035887;28;20076;-72
2022/09/18 02:43:23;;;;;;;24.40;3.78;;;9.30;99.90;;;;;;5036234;28;20026;-73
2022/09/18 02:46:08;;;;;;;22.80;3.00;;;9.30;99.90;;;;;;5055678;23;20087;-67
2022/09/18 02:48:51;;;;;;;27.02;4.20;;;9.20;99.90;;;;;;5074882;28;20049;-67
2022/09/18 02:51:33;;;;;;;16.75;3.03;;;9.10;99.90;;;;;;5075458;28;20025;-67
2022/09/18 02:54:25;;;;;;;24.48;3.25;;;9.10;99.90;;;;;;5067098;28;20052;-67
2022/09/18 02:57:17;;;;;;;19.52;2.88;;;9.00;99.90;;;;;;5075145;28;20036;-67
2022/09/18 02:59:48;;;;;;;21.80;3.22;;;8.90;99.90;;;;;;5065185;28;20028;-68
2022/09/18 03:02:13;;;;;;;37.20;3.28;;;8.80;99.90;;;;;;5074985;28;20024;-68
2022/09/18 03:04:39;;;;;;;35.67;3.50;;;8.70;99.90;;;;;;5074924;28;20420;-68
2022/09/18 03:07:05;;;;;;;33.65;4.18;;;8.80;99.90;;;;;;5074227;28;20040;-68
2022/09/18 03:09:33;;;;;;;19.80;3.40;;;8.80;99.90;;;;;;5074429;28;20024;-68
2022/09/18 03:12:00;;;;;;;24.60;2.88;;;8.80;99.90;;;;;;5074971;28;20024;-68
2022/09/18 03:14:26;;;;;;;27.17;3.30;;;9.00;99.90;;;;;;5074938;28;20029;-68
2022/09/18 03:16:52;;;;;;;39.83;3.58;;;9.10;99.90;;;;;;5074548;28;20025;-68
2022/09/18 03:19:17;;;;;;;25.05;3.20;;;9.20;99.90;;;;;;5074075;28;20032;-68
2022/09/18 03:21:43;;;;;;;23.17;3.58;;;9.20;99.90;;;;;;5074532;28;20391;-68
2022/09/18 03:24:08;;;;;;;26.83;2.67;;;9.20;99.90;;;;;;5074622;28;20391;-69
2022/09/18 03:26:34;;;;;;;14.30;2.60;;;9.20;99.90;;;;;;5074353;28;20158;-69
2022/09/18 03:29:00;;;;;;;25.58;3.97;;;9.20;99.90;;;;;;5073761;28;20025;-68
2022/09/18 03:31:25;;;;;;;20.83;2.42;;;9.20;99.90;;;;;;5074587;28;20044;-68
2022/09/18 03:33:51;;;;;;;22.27;2.53;;;9.20;99.90;;;;;;5074549;28;20533;-68
2022/09/18 03:36:16;;;;;;;32.70;3.58;;;9.20;99.90;;;;;;5074188;28;20021;-68
2022/09/18 03:38:42;;;;;;;24.98;3.63;;;9.20;99.90;;;;;;5074775;28;20024;-68
2022/09/18 03:41:08;;;;;;;31.63;3.05;;;9.20;99.90;;;;;;5073681;28;20067;-68
2022/09/18 03:43:34;;;;;;;44.67;4.25;;;9.20;99.90;;;;;;5074074;28;20025;-68
2022/09/18 03:46:00;;;;;;;19.65;3.05;;;9.20;99.90;;;;;;5073909;28;20499;-66
2022/09/18 03:48:26;;;;;;;25.75;3.03;;;9.30;99.90;;;;;;5073410;28;20032;-66
2022/09/18 03:50:52;;;;;;;30.63;3.75;;;9.40;99.90;;;;;;5073996;28;20480;-66
2022/09/18 03:53:17;;;;;;;24.23;2.60;;;9.50;99.90;;;;;;5074507;28;20021;-66
2022/09/18 03:55:43;;;;;;;35.08;3.03;;;9.50;99.90;;;;;;5074042;28;20024;-66
2022/09/18 03:58:08;;;;;;;24.58;2.75;;;9.40;99.90;;;;;;5073328;28;20500;-66
2022/09/18 04:00:34;;;;;;;24.75;3.05;;;9.50;99.90;;;;;;5073808;28;20062;-66
2022/09/18 04:03:00;;;;;;;33.08;3.50;;;9.40;99.90;;;;;;5073776;28;20033;-66
2022/09/18 04:05:25;;;;;;;26.60;3.95;;;9.40;99.90;;;;;;5073121;28;20031;-68
2022/09/18 04:07:51;;;;;;;28.98;3.58;;;9.40;99.90;;;;;;5073607;28;20026;-68
2022/09/18 04:10:16;;;;;;;29.83;2.92;;;9.40;99.90;;;;;;5073644;28;20023;-68
2022/09/18 04:12:46;;;;;;;37.10;4.93;;;9.40;99.90;;;;;;5073656;28;20100;-68
2022/09/18 04:15:13;;;;;;;25.92;3.25;;;9.40;99.90;;;;;;5073850;28;20024;-68
2022/09/18 04:17:38;;;;;;;21.63;3.00;;;9.40;99.90;;;;;;5073151;28;20029;-68
2022/09/18 04:20:04;;;;;;;22.52;2.85;;;9.30;99.90;;;;;;5073015;28;20040;-68
2022/09/18 04:22:30;;;;;;;26.42;2.85;;;9.30;99.90;;;;;;5072279;28;20029;-68
2022/09/18 04:24:56;;;;;;;27.33;3.42;;;9.30;99.90;;;;;;5073358;28;20369;-68
2022/09/18 04:27:21;;;;;;;29.38;3.33;;;9.30;99.90;;;;;;5073486;28;20032;-68
2022/09/18 04:29:47;;;;;;;30.88;4.50;;;9.20;99.90;;;;;;5073608;28;20491;-68
2022/09/18 04:32:12;;;;;;;25.00;3.03;;;9.20;99.90;;;;;;5072875;28;20028;-68
2022/09/18 04:34:38;;;;;;;24.85;3.80;;;9.20;99.90;;;;;;5064946;28;20028;-66
2022/09/18 04:37:03;;;;;;;27.45;4.13;;;9.20;99.90;;;;;;5055231;28;20029;-66
2022/09/18 04:39:31;;;;;;;32.53;4.43;;;9.20;99.90;;;;;;5066741;28;20028;-66
2022/09/18 04:41:56;;;;;;;22.70;3.38;;;9.20;99.90;;;;;;5053158;28;20472;-66
2022/09/18 04:44:22;;;;;;;25.42;3.65;;;9.20;99.90;;;;;;5067834;28;20036;-66
2022/09/18 04:46:48;;;;;;;20.00;3.33;;;9.10;99.90;;;;;;5053252;28;20484;-66
2022/09/18 04:49:14;;;;;;;26.98;3.85;;;9.10;99.90;;;;;;5053457;28;20021;-66
2022/09/18 04:51:39;;;;;;;22.05;4.22;;;9.10;99.90;;;;;;5053176;28;20384;-66
2022/09/18 04:54:05;;;;;;;26.30;4.43;;;9.10;99.90;;;;;;5052532;28;20069;-68
2022/09/18 04:56:30;;;;;;;27.17;4.28;;;9.10;99.90;;;;;;5053661;28;20453;-68
2022/09/18 04:58:56;;;;;;;28.35;3.83;;;9.10;99.90;;;;;;5053406;28;20060;-68
2022/09/18 05:01:21;;;;;;;26.52;3.65;;;9.20;99.90;;;;;;5053185;28;20079;-68
2022/09/18 05:03:47;;;;;;;33.65;3.70;;;9.10;99.90;;;;;;5053073;28;20043;-69
2022/09/18 05:06:12;;;;;;;27.92;4.30;;;9.10;99.90;;;;;;5052705;28;20021;-68
2022/09/18 05:08:38;;;;;;;39.47;4.78;;;9.10;99.90;;;;;;5053154;28;20025;-68
2022/09/18 05:11:04;;;;;;;23.70;2.92;;;9.00;99.90;;;;;;5053003;28;20469;-68
2022/09/18 05:13:29;;;;;;;43.22;3.47;;;9.00;99.90;;;;;;5053211;28;20032;-68
2022/09/18 05:15:56;;;;;;;38.00;4.50;;;9.00;99.90;;;;;;5052593;28;20079;-68
2022/09/18 05:18:22;;;;;;;26.20;3.67;;;9.00;99.90;;;;;;5053185;28;20060;-68
2022/09/18 05:20:47;;;;;;;35.35;4.90;;;9.00;99.90;;;;;;5053499;28;20060;-68
2022/09/18 05:23:14;;;;;;;39.88;5.20;;;9.00;99.90;;;;;;5052869;28;20361;-68
2022/09/18 05:25:40;;;;;;;32.83;3.65;;;9.00;99.90;;;;;;5052793;28;20032;-68
2022/09/18 05:28:06;;;;;;;21.13;2.83;;;9.10;99.90;;;;;;5052243;28;20060;-68
2022/09/18 05:30:32;;;;;;;22.95;3.47;;;9.10;99.90;;;;;;5054537;28;20056;-68
2022/09/18 05:32:59;;;;;;;36.95;4.03;;;9.10;99.90;;;;;;5056680;28;20013;-68
2022/09/18 05:35:27;;;;;;;20.80;3.13;;;9.00;99.90;;;;;;5056008;28;20502;-67
2022/09/18 05:37:54;;;;;;;13.63;2.72;;;9.10;99.90;;;;;;5056534;28;20032;-66
2022/09/18 05:40:22;;;;;;;16.55;2.45;;;9.10;99.90;;;;;;5056797;28;20032;-66
2022/09/18 05:42:49;;;;;;;22.60;3.25;;;9.10;99.90;;;;;;5056786;28;20490;-66
2022/09/18 05:45:15;;;;;;;21.35;2.63;;;9.10;99.90;;;;;;5055665;28;20492;-67
2022/09/18 05:47:41;;;;;;;30.30;3.30;;;9.10;99.90;;;;;;5055169;28;20048;-66
2022/09/18 05:50:08;;;;;;;33.42;3.47;;;9.10;99.90;;;;;;5056361;28;20021;-66
2022/09/18 05:52:34;;;;;;;32.45;3.95;;;9.10;99.90;;;;;;5056524;28;20552;-66
2022/09/18 05:55:00;;;;;;;24.25;3.38;;;9.10;99.90;;;;;;5056188;28;20107;-66
2022/09/18 05:57:25;;;;;;;18.90;3.30;;;9.10;99.90;;;;;;5056232;28;20017;-66
2022/09/18 05:59:51;;;;;;;19.23;3.15;;;9.00;99.90;;;;;;5056115;28;20103;-67
2022/09/18 06:02:16;;;;;;;24.90;3.92;;;9.00;99.90;;;;;;5055696;28;20068;-67
2022/09/18 06:04:42;;;;;;;24.40;3.33;;;9.00;99.90;;;;;;5054492;28;20028;-67
2022/09/18 06:07:07;;;;;;;28.20;2.55;;;8.90;99.90;;;;;;5055909;28;20474;-67
2022/09/18 06:09:33;;;;;;;25.23;2.50;;;8.90;99.90;;;;;;5055186;28;20025;-67
2022/09/18 06:11:58;;;;;;;19.88;4.05;;;8.90;99.90;;;;;;5035998;28;20113;-67
2022/09/18 06:14:24;;;;;;;34.17;4.60;;;9.00;99.90;;;;;;5035906;28;20101;-67
2022/09/18 06:16:50;;;;;;;19.63;2.92;;;9.10;99.90;;;;;;5035812;28;20105;-67
2022/09/18 06:19:16;;;;;;;21.55;2.85;;;9.20;99.90;;;;;;5036124;28;20080;-68
2022/09/18 06:21:41;;;;;;;22.65;3.58;;;9.40;99.90;;;;;;5035264;28;20025;-68
2022/09/18 06:24:08;;;;;;;28.02;2.50;;;9.60;99.90;;;;;;5050330;28;20033;-67
2022/09/18 06:26:33;;;;;;;17.38;3.47;;;9.60;99.90;;;;;;5055589;28;20435;-68
2022/09/18 06:28:59;;;;;;;22.58;2.90;;;9.40;99.90;;;;;;5055506;28;20041;-68
2022/09/18 06:31:24;;;;;;;25.48;4.07;;;9.20;99.90;;;;;;5055060;28;20025;-68
2022/09/18 06:33:50;;;;;;;19.92;2.92;;;9.10;99.90;;;;;;5055750;28;20021;-68
2022/09/18 06:36:16;;;;;;;24.52;3.05;;;9.10;99.90;;;;;;5055680;28;20063;-67
2022/09/18 06:38:41;;;;;;;18.83;2.30;;;8.90;99.90;;;;;;5055557;28;20100;-67
2022/09/18 06:41:10;;;;;;;31.63;2.80;;;8.90;99.90;;;;;;5055194;28;20032;-67
2022/09/18 06:43:35;;;;;;;18.13;2.47;;;8.80;99.90;;;;;;5054691;28;20114;-67
2022/09/18 06:46:02;;;;;;;22.45;3.45;;;8.80;99.90;;;;;;5054681;28;20083;-67
2022/09/18 06:48:28;;;;;;;22.10;2.70;;;8.90;99.90;;;;;;5053578;28;20029;-67
2022/09/18 06:50:56;;;;;;;22.27;3.78;;;9.00;99.90;;;;;;5046507;28;20496;-67
2022/09/18 06:53:22;;;;;;;25.98;3.03;;;9.10;99.90;;;;;;5050049;28;20032;-67
2022/09/18 06:55:48;;;;;;;18.05;2.92;;;9.00;99.90;;;;;;5046019;28;20044;-68
2022/09/18 06:58:16;;;;;;;33.08;4.13;;;9.00;99.90;;;;;;5047852;28;20465;-67
2022/09/18 07:00:42;;;;;;;25.75;3.90;;;9.00;99.90;;;;;;5047497;28;20096;-68
2022/09/18 07:03:08;;;;;;;35.38;3.15;;;9.10;99.90;;;;;;5050449;28;20083;-67
2022/09/18 07:05:37;;;;;;;19.70;2.95;;;9.10;99.90;;;;;;5045129;28;20044;-67
2022/09/18 07:08:02;;;;;;;39.28;4.85;;;9.30;99.90;;;;;;5052040;28;20036;-68
2022/09/18 07:10:28;;;;;;;23.60;3.58;;;9.60;99.90;;;;;;5047083;28;20029;-67
2022/09/18 07:12:58;;;;;;;18.88;2.35;;;9.80;99.90;;;;;;5052205;28;20409;-65
2022/09/18 07:15:25;;;;;;;28.92;3.97;;;10.10;99.90;;;;;;5046323;28;20025;-67
2022/09/18 07:17:57;;;;;;;25.25;3.65;;;10.20;99.90;;;;;;5054699;28;20533;-67
2022/09/18 07:20:22;;;;;;;19.58;2.55;;;10.20;99.90;;;;;;5053587;28;20372;-67
2022/09/18 07:22:57;;;;;;;21.75;2.25;;;10.00;99.90;;;;;;5054039;28;20025;-68
2022/09/18 07:25:23;;;;;;;13.23;2.70;;;9.80;99.90;;;;;;5054325;28;20028;-67
2022/09/18 07:27:49;;;;;;;18.02;4.40;;;9.60;99.90;;;;;;5054567;28;20047;-68
2022/09/18 07:30:15;;;;;;;21.27;7.50;;;9.50;99.90;;;;;;5054499;28;20021;-67
2022/09/18 07:32:41;;;;;;;23.05;8.13;;;9.50;99.90;;;;;;5054490;28;20017;-67
2022/09/18 07:35:07;;;;;;;21.38;6.43;;;9.40;99.90;;;;;;5059624;28;20044;-67
2022/09/18 07:37:33;;;;;;;24.13;4.95;;;9.30;99.90;;;;;;5062280;28;20021;-68
2022/09/18 07:39:59;;;;;;;66.22;23.42;;;9.30;99.90;;;;;;5054241;28;20368;-68
2022/09/18 07:42:25;;;;;;;48.92;16.08;;;9.20;99.90;;;;;;5054275;28;20021;-68
2022/09/18 07:44:52;;;;;;;20.40;8.40;;;9.20;99.90;;;;;;5054182;28;20443;-68
2022/09/18 07:47:17;;;;;;;17.77;3.75;;;9.30;99.90;;;;;;5053345;28;20036;-67
2022/09/18 07:49:43;;;;;;;14.75;2.55;;;9.20;99.90;;;;;;5053702;28;20033;-66
2022/09/18 07:52:08;;;;;;;10.10;2.53;;;9.10;99.90;;;;;;5054440;28;20025;-66
2022/09/18 07:54:34;;;;;;;19.95;4.13;;;9.10;99.90;;;;;;5053874;28;20017;-66
2022/09/18 07:57:00;;;;;;;15.82;2.15;;;9.10;99.90;;;;;;5053760;28;20029;-66
2022/09/18 07:59:25;;;;;;;12.38;1.85;;;9.20;99.90;;;;;;5050994;28;20035;-66
2022/09/18 08:01:54;;;;;;;24.95;3.25;;;9.30;99.90;;;;;;5052416;28;20020;-66
2022/09/18 08:04:20;;;;;;;49.22;19.05;;;9.30;99.90;;;;;;5064669;28;20035;-66
2022/09/18 08:06:50;;;;;;;13.43;3.67;;;9.40;99.90;;;;;;5055651;28;20028;-66
2022/09/18 08:09:16;;;;;;;11.35;2.08;;;9.40;99.90;;;;;;5067781;28;20033;-67
2022/09/18 08:11:41;;;;;;;17.13;2.53;;;9.30;99.90;;;;;;5053237;28;20343;-66
2022/09/18 08:14:07;;;;;;;15.02;2.45;;;9.30;99.90;;;;;;5053492;28;20025;-67
2022/09/18 08:16:33;;;;;;;17.30;2.42;;;9.20;99.90;;;;;;5059365;28;20032;-66
2022/09/18 08:18:58;;;;;;;18.92;2.63;;;9.20;99.90;;;;;;5061750;28;20044;-66
2022/09/18 08:21:24;;;;;;;10.35;1.90;;;9.20;99.90;;;;;;5053502;28;20043;-66
2022/09/18 08:23:49;;;;;;;16.10;2.05;;;9.30;99.90;;;;;;5053140;28;20033;-66
2022/09/18 08:26:15;;;;;;;18.75;2.92;;;9.30;99.90;;;;;;5053294;28;20029;-66
2022/09/18 08:28:40;;;;;;;20.60;4.03;;;9.40;99.90;;;;;;5053431;28;20036;-66
2022/09/18 08:31:06;;;;;;;24.75;7.75;;;9.50;99.90;;;;;;5053871;28;20083;-66
2022/09/18 08:33:32;;;;;;;24.80;10.35;;;9.60;99.90;;;;;;5058527;28;20405;-68
2022/09/18 08:35:57;;;;;;;18.80;4.75;;;9.80;99.90;;;;;;5062055;28;20025;-67
2022/09/18 08:38:23;;;;;;;28.48;7.30;;;9.90;99.90;;;;;;5052738;28;20096;-66
2022/09/18 08:41:07;;;;;;;26.38;5.80;;;10.00;99.90;;;;;;5053711;28;20025;-66
2022/09/18 08:43:41;;;;;;;;;;;9.80;99.90;;;;;;5054060;28;20071;-68
2022/09/18 08:46:28;;;;;;;15.82;2.28;;;9.50;99.90;;;;;;5063080;22;19928;-71
2022/09/18 08:48:57;;;;;;;15.05;4.93;;;9.20;99.90;;;;;;5031262;28;20030;-71
2022/09/18 08:51:30;;;;;;;22.13;4.28;;;9.10;99.90;;;;;;5033711;28;20026;-72
2022/09/18 08:54:20;;;;;;;19.83;3.42;;;9.10;99.90;;;;;;5033622;28;20018;-71
2022/09/18 08:56:46;;;;;;;23.33;2.80;;;9.20;99.90;;;;;;5033876;28;20057;-71
2022/09/18 09:00:02;;;;;;;12.30;2.72;;;9.30;99.90;;;;;;5026430;28;20506;-70
2022/09/18 09:02:38;;;;;;;13.85;2.80;;;9.40;99.90;;;;;;4967688;28;20035;-71
2022/09/18 09:05:13;;;;;;;15.32;2.40;;;9.40;99.90;;;;;;5025543;28;20045;-70
2022/09/18 09:07:45;;;;;;;23.60;3.92;;;9.50;99.90;;;;;;5037567;28;20021;-71
2022/09/18 09:10:20;;;;;;;13.30;2.58;;;9.50;99.90;;;;;;5037490;28;20048;-71
2022/09/18 09:13:27;;;;;;;23.33;3.83;;;9.60;99.90;;;;;;5029180;28;20485;-71
2022/09/18 09:16:15;;;;;;;12.95;1.77;;;9.70;99.90;;;;;;5000322;28;20045;-70
2022/09/18 09:18:55;;;;;;;13.57;2.88;;;9.70;99.90;;;;;;5017989;28;20026;-71
2022/09/18 09:21:23;;;;;;;12.02;1.88;;;9.70;99.90;;;;;;5017943;28;20025;-68
2022/09/18 09:24:27;;;;;;;19.20;2.50;;;9.60;99.90;;;;;;5017445;28;20024;-68
2022/09/18 09:26:54;;;;;;;13.03;2.23;;;9.40;99.90;;;;;;5015905;28;20064;-68
2022/09/18 09:29:27;;;;;;;13.93;2.53;;;9.30;99.90;;;;;;5016986;28;20109;-67
2022/09/18 09:31:57;;;;;;;20.35;2.88;;;9.10;99.90;;;;;;5017235;28;20029;-68
2022/09/18 09:34:41;;;;;;;16.65;2.33;;;9.00;99.90;;;;;;5017005;28;20386;-67
2022/09/18 09:37:22;;;;;;;14.07;2.55;;;9.00;99.90;;;;;;5016919;28;20433;-68
2022/09/18 09:39:58;;;;;;;15.68;2.50;;;9.10;99.90;;;;;;5016472;28;20072;-68
2022/09/18 09:42:33;;;;;;;30.20;2.53;;;9.30;99.90;;;;;;5017191;28;20053;-68
2022/09/18 09:45:02;;;;;;;26.20;3.92;;;9.60;99.90;;;;;;5016974;28;20045;-69
2022/09/18 09:47:40;;;;;;;37.60;3.95;;;9.80;99.90;;;;;;5016661;28;20034;-68
2022/09/18 09:50:25;;;;;;;19.95;2.60;;;9.80;99.90;;;;;;5017181;28;20025;-67
2022/09/18 09:52:56;;;;;;;21.92;5.13;;;9.70;99.90;;;;;;5016513;28;20045;-68
2022/09/18 09:55:56;;;;;;;23.73;6.93;;;9.50;99.90;;;;;;5017167;28;20014;-68
2022/09/18 09:59:04;;;;;;;31.25;7.50;;;9.50;99.90;;;;;;5016543;28;20532;-68
2022/09/18 10:01:55;;;;;;;16.85;4.35;;;9.50;99.90;;;;;;5016485;28;20105;-68
2022/09/18 10:04:21;;;;;;;31.83;4.88;;;9.40;99.90;;;;;;5016721;28;20053;-67
2022/09/18 10:06:57;;;;;;;28.45;4.88;;;9.40;99.90;;;;;;5016289;28;20057;-67
2022/09/18 10:09:34;;;;;;;48.40;14.30;;;9.40;99.90;;;;;;5015949;28;20029;-68
2022/09/18 10:12:25;;;;;;;52.92;18.45;;;9.40;99.90;;;;;;5016222;28;20033;-68
2022/09/18 10:14:54;;;;;;;67.85;35.63;;;9.40;99.90;;;;;;5016665;28;20025;-68
2022/09/18 10:17:22;;;;;;;53.40;23.45;;;9.60;99.90;;;;;;5014913;28;20053;-68
2022/09/18 10:19:48;;;;;;;47.42;26.83;;;9.70;99.90;;;;;;5015537;28;20109;-68
2022/09/18 10:22:19;;;;;;;96.28;50.10;;;9.90;99.90;;;;;;5016666;28;20409;-67
2022/09/18 10:24:45;;;;;;;38.83;9.80;;;9.80;99.90;;;;;;5016159;28;20116;-68
2022/09/18 10:27:13;;;;;;;31.02;10.48;;;9.70;99.90;;;;;;5015998;28;20022;-68
2022/09/18 10:29:39;;;;;;;42.90;19.38;;;9.70;99.90;;;;;;5015493;28;20022;-69
2022/09/18 10:32:06;;;;;;;17.65;7.63;;;9.60;99.90;;;;;;5016188;28;20036;-68
2022/09/18 10:34:34;;;;;;;25.92;6.85;;;9.70;99.90;;;;;;5015931;28;20025;-68
2022/09/18 10:37:00;;;;;;;18.33;3.20;;;9.70;99.90;;;;;;5015884;28;20426;-68
2022/09/18 10:39:31;;;;;;;25.30;4.75;;;9.70;99.90;;;;;;5015271;28;20064;-67
2022/09/18 10:41:58;;;;;;;16.73;3.08;;;9.60;99.90;;;;;;5016177;28;20033;-68
2022/09/18 10:44:36;;;;;;;27.10;4.97;;;9.50;99.90;;;;;;5015804;28;20030;-68
2022/09/18 10:47:19;;;;;;;20.60;4.00;;;9.40;99.90;;;;;;5015719;28;20049;-68
2022/09/18 10:50:05;;;;;;;23.45;2.90;;;9.40;99.90;;;;;;5015549;28;20474;-68
2022/09/18 10:52:36;;;;;;;23.02;4.07;;;9.40;99.90;;;;;;5015523;28;20022;-69
2022/09/18 10:55:05;;;;;;;15.60;4.35;;;9.50;99.90;;;;;;5015626;28;20021;-68
2022/09/18 10:57:59;;;;;;;28.20;4.72;;;9.50;99.90;;;;;;5015347;28;20018;-68
2022/09/18 11:00:32;;;;;;;28.17;5.68;;;9.70;99.90;;;;;;5015699;28;20381;-68
2022/09/18 11:03:22;;;;;;;35.00;5.10;;;10.00;99.90;;;;;;5015005;28;20068;-68
2022/09/18 11:05:59;;;;;;;32.15;4.47;;;10.50;99.90;;;;;;5014311;28;20478;-68
2022/09/18 11:08:32;;;;;;;15.65;3.33;;;11.30;99.90;;;;;;5016471;28;20041;-68
2022/09/18 11:11:12;;;;;;;27.63;3.95;;;11.40;99.90;;;;;;5016780;28;20025;-68
2022/09/18 11:13:55;;;;;;;13.52;2.17;;;11.30;99.90;;;;;;5015196;28;20022;-68
2022/09/18 11:16:27;;;;;;;8.40;2.60;;;11.30;99.90;;;;;;5025348;28;20496;-68
2022/09/18 11:19:18;;;;;;;8.68;1.83;;;11.30;99.90;;;;;;5034871;28;20264;-68
2022/09/18 11:21:47;;;;;;;5.97;1.98;;;11.50;99.90;;;;;;5018988;28;20441;-68
2022/09/18 11:24:24;;;;;;;7.03;1.60;;;11.50;99.90;;;;;;5034741;28;20021;-68
2022/09/18 11:26:53;;;;;;;12.90;1.60;;;11.50;99.90;;;;;;5017969;28;20072;-68
2022/09/18 11:29:38;;;;;;;11.30;1.70;;;11.60;99.90;;;;;;5013901;28;20558;-68
2022/09/18 11:32:25;;;;;;;7.00;1.10;;;11.70;99.90;;;;;;5014866;28;20084;-68
2022/09/18 11:34:56;;;;;;;3.70;1.13;;;11.90;99.90;;;;;;5013545;28;20168;-68
2022/09/18 11:37:35;;;;;;;6.53;1.20;;;12.10;99.90;;;;;;5014980;28;20390;-68
2022/09/18 11:40:06;;;;;;;6.88;1.02;;;12.20;99.90;;;;;;5017817;28;20029;-68
2022/09/18 11:42:32;;;;;;;5.05;1.25;;;12.70;99.90;;;;;;5034097;28;20030;-68
2022/09/18 11:45:33;;;;;;;8.73;1.92;;;13.10;99.90;;;;;;5034607;28;20032;-68
2022/09/18 11:48:30;;;;;;;7.95;2.40;;;13.30;99.90;;;;;;5034162;28;20040;-69
2022/09/18 11:51:00;;;;;;;8.02;1.10;;;13.00;99.90;;;;;;5033842;28;20112;-68
2022/09/18 11:53:36;;;;;;;7.53;1.67;;;12.80;99.90;;;;;;5034142;28;20112;-68
2022/09/18 11:56:14;;;;;;;15.82;1.50;;;12.40;99.90;;;;;;5024978;28;20065;-69
2022/09/18 11:59:02;;;;;;;12.15;1.23;;;12.50;99.90;;;;;;5016757;28;20418;-69
2022/09/18 12:01:40;;;;;;;9.93;1.42;;;13.30;99.90;;;;;;5013967;28;20068;-68
2022/09/18 12:04:20;;;;;;;8.05;1.60;;;13.30;99.90;;;;;;5018163;28;20029;-69
2022/09/18 12:07:11;;;;;;;9.63;1.67;;;13.00;99.90;;;;;;5024594;28;20096;-69
2022/09/18 12:09:54;;;;;;;11.68;2.85;;;12.90;99.90;;;;;;5014195;28;20057;-69
2022/09/18 12:12:38;;;;;;;8.00;1.50;;;12.70;99.90;;;;;;5014095;28;20413;-69
2022/09/18 12:15:12;;;;;;;13.32;3.85;;;12.70;99.90;;;;;;5014113;28;20033;-69
2022/09/18 12:17:44;;;;;;;4.93;1.25;;;12.70;99.90;;;;;;5012953;28;20108;-69
2022/09/18 12:20:23;;;;;;;35.58;18.88;;;12.80;99.90;;;;;;5014303;28;20080;-68
2022/09/18 12:22:57;;;;;;;11.60;4.15;;;13.00;99.90;;;;;;5014105;28;20515;-69
2022/09/18 12:25:37;;;;;;;7.80;2.35;;;13.00;99.90;;;;;;5028432;28;20056;-69
2022/09/18 12:28:13;;;;;;;6.20;1.17;;;12.90;99.90;;;;;;5014854;28;20024;-68
2022/09/18 12:30:52;;;;;;;4.72;1.70;;;12.90;99.90;;;;;;5013679;28;20032;-68
2022/09/18 12:33:44;;;;;;;9.75;2.95;;;12.70;99.90;;;;;;5013637;28;20462;-69
2022/09/18 12:36:48;;;;;;;7.43;1.70;;;12.40;99.90;;;;;;5012999;28;20026;-68
2022/09/18 12:39:31;;;;;;;8.95;1.50;;;12.10;99.90;;;;;;5010502;28;20049;-69
2022/09/18 12:42:02;;;;;;;7.57;1.48;;;11.90;99.90;;;;;;5013496;28;20053;-69
2022/09/18 12:44:45;;;;;;;4.97;1.15;;;11.70;99.90;;;;;;5013701;28;20064;-68
2022/09/18 12:47:35;;;;;;;5.03;4.45;;;11.60;99.90;;;;;;5013043;28;20041;-68
2022/09/18 12:50:17;;;;;;;43.80;20.73;;;11.70;99.90;;;;;;5013486;28;20076;-68
2022/09/18 12:52:58;;;;;;;73.88;35.63;;;12.40;99.90;;;;;;5013965;28;20540;-68
2022/09/18 12:55:48;;;;;;;59.28;27.42;;;12.80;99.90;;;;;;5013654;28;20080;-68
2022/09/18 12:58:31;;;;;;;76.63;40.30;;;13.60;99.90;;;;;;5013421;28;20105;-69
2022/09/18 13:01:01;;;;;;;33.03;15.40;;;14.50;99.90;;;;;;5012819;28;20164;-69
2022/09/18 13:03:33;;;;;;;15.18;3.70;;;15.60;99.90;;;;;;5013854;28;20022;-69
2022/09/18 13:06:06;;;;;;;17.83;2.60;;;15.50;99.90;;;;;;5013675;28;20033;-68
2022/09/18 13:08:42;;;;;;;11.85;1.73;;;14.50;99.90;;;;;;5012968;28;20057;-68
2022/09/18 13:11:35;;;;;;;8.80;2.20;;;13.70;99.90;;;;;;5013365;28;20037;-69